sensor_id;sensor_type;location;lat;lon;timestamp;P1;durP1;ratioP1;P2;durP2;ratioP2
18973;SDS011;9621;48.690;9.466;2022-11-28T00:00:10;13.87;;;9.73;;
18973;SDS011;9621;48.690;9.466;2022-11-28T00:02:39;11.93;;;8.53;;
18973;SDS011;9621;48.690;9.466;2022-11-28T00:05:08;11.10;;;9.03;;
18973;SDS011;9621;48.690;9.466;2022-11-28T00:07:35;13.00;;;9.43;;
18973;SDS011;9621;48.690;9.466;2022-11-28T00:10:02;12.10;;;8.90;;
18973;SDS011;9621;48.690;9.466;2022-11-28T00:12:31;12.33;;;8.97;;
18973;SDS011;9621;48.690;9.466;2022-11-28T00:14:59;13.23;;;9.53;;
18973;SDS011;9621;48.690;9.466;2022-11-28T00:17:26;12.77;;;9.23;;
18973;SDS011;9621;48.690;9.466;2022-11-28T00:19:55;13.40;;;9.03;;
18973;SDS011;9621;48.690;9.466;2022-11-28T00:22:21;12.70;;;8.87;;
18973;SDS011;9621;48.690;9.466;2022-11-28T00:24:51;13.80;;;8.93;;
18973;SDS011;9621;48.690;9.466;2022-11-28T00:27:18;14.73;;;9.07;;
18973;SDS011;9621;48.690;9.466;2022-11-28T00:29:45;13.03;;;8.67;;
18973;SDS011;9621;48.690;9.466;2022-11-28T00:32:12;15.40;;;9.30;;
18973;SDS011;9621;48.690;9.466;2022-11-28T00:34:39;10.93;;;8.10;;
18973;SDS011;9621;48.690;9.466;2022-11-28T00:37:08;13.47;;;8.97;;
18973;SDS011;9621;48.690;9.466;2022-11-28T00:39:35;11.93;;;8.23;;
18973;SDS011;9621;48.690;9.466;2022-11-28T00:42:02;14.10;;;9.17;;
18973;SDS011;9621;48.690;9.466;2022-11-28T00:44:29;13.17;;;8.77;;
18973;SDS011;9621;48.690;9.466;2022-11-28T00:46:55;10.77;;;7.73;;
18973;SDS011;9621;48.690;9.466;2022-11-28T00:49:22;11.33;;;8.07;;
18973;SDS011;9621;48.690;9.466;2022-11-28T00:51:49;12.57;;;8.10;;
18973;SDS011;9621;48.690;9.466;2022-11-28T00:54:18;13.20;;;8.33;;
18973;SDS011;9621;48.690;9.466;2022-11-28T00:56:44;11.67;;;8.60;;
18973;SDS011;9621;48.690;9.466;2022-11-28T00:59:11;12.40;;;8.67;;
18973;SDS011;9621;48.690;9.466;2022-11-28T01:01:38;9.53;;;7.63;;
18973;SDS011;9621;48.690;9.466;2022-11-28T01:04:09;12.30;;;8.33;;
18973;SDS011;9621;48.690;9.466;2022-11-28T01:06:38;14.37;;;8.27;;
18973;SDS011;9621;48.690;9.466;2022-11-28T01:09:07;11.57;;;7.97;;
18973;SDS011;9621;48.690;9.466;2022-11-28T01:11:39;12.03;;;8.20;;
18973;SDS011;9621;48.690;9.466;2022-11-28T01:14:08;12.63;;;8.13;;
18973;SDS011;9621;48.690;9.466;2022-11-28T01:16:35;12.50;;;7.97;;
18973;SDS011;9621;48.690;9.466;2022-11-28T01:19:03;10.20;;;7.97;;
18973;SDS011;9621;48.690;9.466;2022-11-28T01:21:30;12.20;;;8.57;;
18973;SDS011;9621;48.690;9.466;2022-11-28T01:23:57;11.23;;;8.10;;
18973;SDS011;9621;48.690;9.466;2022-11-28T01:26:25;9.53;;;7.77;;
18973;SDS011;9621;48.690;9.466;2022-11-28T01:28:54;12.17;;;8.00;;
18973;SDS011;9621;48.690;9.466;2022-11-28T01:31:22;11.90;;;8.60;;
18973;SDS011;9621;48.690;9.466;2022-11-28T01:33:51;13.43;;;9.07;;
18973;SDS011;9621;48.690;9.466;2022-11-28T01:36:18;13.67;;;9.17;;
18973;SDS011;9621;48.690;9.466;2022-11-28T01:38:46;13.33;;;8.80;;
18973;SDS011;9621;48.690;9.466;2022-11-28T01:41:14;10.90;;;8.23;;
18973;SDS011;9621;48.690;9.466;2022-11-28T01:43:57;11.10;;;7.83;;
18973;SDS011;9621;48.690;9.466;2022-11-28T01:46:26;11.33;;;8.90;;
18973;SDS011;9621;48.690;9.466;2022-11-28T01:48:53;10.33;;;8.47;;
18973;SDS011;9621;48.690;9.466;2022-11-28T01:51:24;10.00;;;7.60;;
18973;SDS011;9621;48.690;9.466;2022-11-28T01:53:51;13.00;;;8.50;;
18973;SDS011;9621;48.690;9.466;2022-11-28T01:56:20;11.63;;;8.33;;
18973;SDS011;9621;48.690;9.466;2022-11-28T01:58:53;11.77;;;8.63;;
18973;SDS011;9621;48.690;9.466;2022-11-28T02:01:24;10.03;;;8.20;;
18973;SDS011;9621;48.690;9.466;2022-11-28T02:03:52;11.13;;;8.07;;
18973;SDS011;9621;48.690;9.466;2022-11-28T02:06:21;11.13;;;8.33;;
18973;SDS011;9621;48.690;9.466;2022-11-28T02:08:49;11.43;;;8.17;;
18973;SDS011;9621;48.690;9.466;2022-11-28T02:14:07;11.80;;;8.87;;
18973;SDS011;9621;48.690;9.466;2022-11-28T02:16:48;11.17;;;7.97;;
18973;SDS011;9621;48.690;9.466;2022-11-28T02:19:35;11.77;;;8.67;;
18973;SDS011;9621;48.690;9.466;2022-11-28T02:22:32;10.67;;;7.60;;
18973;SDS011;9621;48.690;9.466;2022-11-28T02:25:07;11.47;;;8.17;;
18973;SDS011;9621;48.690;9.466;2022-11-28T02:27:56;10.57;;;8.27;;
18973;SDS011;9621;48.690;9.466;2022-11-28T02:30:39;11.67;;;8.60;;
18973;SDS011;9621;48.690;9.466;2022-11-28T02:33:18;10.73;;;8.07;;
18973;SDS011;9621;48.690;9.466;2022-11-28T02:35:55;9.93;;;7.77;;
18973;SDS011;9621;48.690;9.466;2022-11-28T02:38:34;11.60;;;8.53;;
18973;SDS011;9621;48.690;9.466;2022-11-28T02:41:14;10.80;;;7.37;;
18973;SDS011;9621;48.690;9.466;2022-11-28T02:43:50;9.97;;;7.03;;
18973;SDS011;9621;48.690;9.466;2022-11-28T02:46:22;11.27;;;7.83;;
18973;SDS011;9621;48.690;9.466;2022-11-28T02:48:57;10.83;;;7.93;;
18973;SDS011;9621;48.690;9.466;2022-11-28T02:51:28;13.87;;;8.30;;
18973;SDS011;9621;48.690;9.466;2022-11-28T02:53:59;11.13;;;8.73;;
18973;SDS011;9621;48.690;9.466;2022-11-28T02:56:29;13.00;;;8.50;;
18973;SDS011;9621;48.690;9.466;2022-11-28T02:58:56;12.70;;;8.53;;
18973;SDS011;9621;48.690;9.466;2022-11-28T03:01:23;13.80;;;8.50;;
18973;SDS011;9621;48.690;9.466;2022-11-28T03:03:59;11.10;;;8.17;;
18973;SDS011;9621;48.690;9.466;2022-11-28T03:06:38;10.37;;;7.73;;
18973;SDS011;9621;48.690;9.466;2022-11-28T03:09:25;11.23;;;8.97;;
18973;SDS011;9621;48.690;9.466;2022-11-28T03:12:11;14.80;;;9.27;;
18973;SDS011;9621;48.690;9.466;2022-11-28T03:14:49;12.10;;;8.87;;
18973;SDS011;9621;48.690;9.466;2022-11-28T03:17:20;12.43;;;8.83;;
18973;SDS011;9621;48.690;9.466;2022-11-28T03:20:00;12.60;;;8.43;;
18973;SDS011;9621;48.690;9.466;2022-11-28T03:22:37;13.57;;;8.77;;
18973;SDS011;9621;48.690;9.466;2022-11-28T03:25:11;11.53;;;8.50;;
18973;SDS011;9621;48.690;9.466;2022-11-28T03:27:49;11.73;;;8.80;;
18973;SDS011;9621;48.690;9.466;2022-11-28T03:30:21;12.13;;;9.00;;
18973;SDS011;9621;48.690;9.466;2022-11-28T03:32:54;14.87;;;8.70;;
18973;SDS011;9621;48.690;9.466;2022-11-28T03:35:26;13.97;;;9.10;;
18973;SDS011;9621;48.690;9.466;2022-11-28T03:37:56;13.20;;;9.07;;
18973;SDS011;9621;48.690;9.466;2022-11-28T03:40:30;12.60;;;9.23;;
18973;SDS011;9621;48.690;9.466;2022-11-28T03:43:01;13.70;;;8.43;;
18973;SDS011;9621;48.690;9.466;2022-11-28T03:45:31;12.47;;;8.60;;
18973;SDS011;9621;48.690;9.466;2022-11-28T03:48:05;11.50;;;8.43;;
18973;SDS011;9621;48.690;9.466;2022-11-28T03:50:37;11.10;;;8.70;;
18973;SDS011;9621;48.690;9.466;2022-11-28T03:53:08;10.77;;;8.33;;
18973;SDS011;9621;48.690;9.466;2022-11-28T03:55:42;12.33;;;8.60;;
18973;SDS011;9621;48.690;9.466;2022-11-28T03:58:13;13.73;;;9.03;;
18973;SDS011;9621;48.690;9.466;2022-11-28T04:00:50;11.63;;;8.53;;
18973;SDS011;9621;48.690;9.466;2022-11-28T04:03:25;12.87;;;8.63;;
18973;SDS011;9621;48.690;9.466;2022-11-28T04:06:04;11.93;;;8.80;;
18973;SDS011;9621;48.690;9.466;2022-11-28T04:08:42;10.47;;;8.13;;
18973;SDS011;9621;48.690;9.466;2022-11-28T04:11:13;11.00;;;8.53;;
18973;SDS011;9621;48.690;9.466;2022-11-28T04:13:45;12.70;;;8.90;;
18973;SDS011;9621;48.690;9.466;2022-11-28T04:16:18;10.27;;;7.73;;
18973;SDS011;9621;48.690;9.466;2022-11-28T04:18:51;12.73;;;8.73;;
18973;SDS011;9621;48.690;9.466;2022-11-28T04:21:25;11.50;;;8.60;;
18973;SDS011;9621;48.690;9.466;2022-11-28T04:23:58;11.87;;;8.60;;
18973;SDS011;9621;48.690;9.466;2022-11-28T04:26:30;12.60;;;8.80;;
18973;SDS011;9621;48.690;9.466;2022-11-28T04:29:00;12.33;;;8.97;;
18973;SDS011;9621;48.690;9.466;2022-11-28T04:31:31;11.80;;;8.87;;
18973;SDS011;9621;48.690;9.466;2022-11-28T04:33:59;11.30;;;7.83;;
18973;SDS011;9621;48.690;9.466;2022-11-28T04:36:32;13.57;;;9.50;;
18973;SDS011;9621;48.690;9.466;2022-11-28T04:39:03;11.53;;;8.07;;
18973;SDS011;9621;48.690;9.466;2022-11-28T04:41:35;13.90;;;8.37;;
18973;SDS011;9621;48.690;9.466;2022-11-28T04:44:07;12.23;;;8.70;;
18973;SDS011;9621;48.690;9.466;2022-11-28T04:46:38;11.67;;;8.47;;
18973;SDS011;9621;48.690;9.466;2022-11-28T04:49:08;11.83;;;8.20;;
18973;SDS011;9621;48.690;9.466;2022-11-28T04:51:41;12.90;;;8.43;;
18973;SDS011;9621;48.690;9.466;2022-11-28T04:54:13;12.67;;;8.53;;
18973;SDS011;9621;48.690;9.466;2022-11-28T04:56:44;11.53;;;8.80;;
18973;SDS011;9621;48.690;9.466;2022-11-28T04:59:14;12.00;;;8.60;;
18973;SDS011;9621;48.690;9.466;2022-11-28T05:01:43;12.43;;;8.37;;
18973;SDS011;9621;48.690;9.466;2022-11-28T05:04:12;12.27;;;8.07;;
18973;SDS011;9621;48.690;9.466;2022-11-28T05:06:42;10.90;;;8.07;;
18973;SDS011;9621;48.690;9.466;2022-11-28T05:09:10;9.50;;;7.80;;
18973;SDS011;9621;48.690;9.466;2022-11-28T05:11:37;10.33;;;7.70;;
18973;SDS011;9621;48.690;9.466;2022-11-28T05:14:04;10.93;;;8.50;;
18973;SDS011;9621;48.690;9.466;2022-11-28T05:16:31;11.07;;;7.60;;
18973;SDS011;9621;48.690;9.466;2022-11-28T05:18:58;11.50;;;7.77;;
18973;SDS011;9621;48.690;9.466;2022-11-28T05:21:25;11.87;;;8.07;;
18973;SDS011;9621;48.690;9.466;2022-11-28T05:23:54;10.23;;;8.30;;
18973;SDS011;9621;48.690;9.466;2022-11-28T05:26:21;11.70;;;8.40;;
18973;SDS011;9621;48.690;9.466;2022-11-28T05:28:48;11.03;;;7.97;;
18973;SDS011;9621;48.690;9.466;2022-11-28T05:31:16;11.93;;;8.50;;
18973;SDS011;9621;48.690;9.466;2022-11-28T05:33:44;11.07;;;7.90;;
18973;SDS011;9621;48.690;9.466;2022-11-28T05:36:12;9.93;;;7.73;;
18973;SDS011;9621;48.690;9.466;2022-11-28T05:38:40;11.63;;;8.30;;
18973;SDS011;9621;48.690;9.466;2022-11-28T05:41:16;12.57;;;8.03;;
18973;SDS011;9621;48.690;9.466;2022-11-28T05:43:44;13.73;;;9.33;;
18973;SDS011;9621;48.690;9.466;2022-11-28T05:46:11;12.10;;;8.47;;
18973;SDS011;9621;48.690;9.466;2022-11-28T05:48:37;11.70;;;8.60;;
18973;SDS011;9621;48.690;9.466;2022-11-28T05:51:05;11.60;;;8.33;;
18973;SDS011;9621;48.690;9.466;2022-11-28T05:53:32;13.37;;;8.37;;
18973;SDS011;9621;48.690;9.466;2022-11-28T05:56:04;9.77;;;8.03;;
18973;SDS011;9621;48.690;9.466;2022-11-28T05:58:33;13.67;;;8.37;;
18973;SDS011;9621;48.690;9.466;2022-11-28T06:01:07;11.03;;;8.10;;
18973;SDS011;9621;48.690;9.466;2022-11-28T06:03:35;13.03;;;7.97;;
18973;SDS011;9621;48.690;9.466;2022-11-28T06:06:02;10.33;;;7.80;;
18973;SDS011;9621;48.690;9.466;2022-11-28T06:08:29;12.40;;;8.67;;
18973;SDS011;9621;48.690;9.466;2022-11-28T06:10:56;10.60;;;8.17;;
18973;SDS011;9621;48.690;9.466;2022-11-28T06:13:24;13.43;;;8.07;;
18973;SDS011;9621;48.690;9.466;2022-11-28T06:15:53;11.70;;;7.37;;
18973;SDS011;9621;48.690;9.466;2022-11-28T06:18:20;10.70;;;7.43;;
18973;SDS011;9621;48.690;9.466;2022-11-28T06:20:47;13.10;;;8.60;;
18973;SDS011;9621;48.690;9.466;2022-11-28T06:23:14;9.67;;;7.37;;
18973;SDS011;9621;48.690;9.466;2022-11-28T06:25:41;10.30;;;7.97;;
18973;SDS011;9621;48.690;9.466;2022-11-28T06:28:08;14.70;;;8.83;;
18973;SDS011;9621;48.690;9.466;2022-11-28T06:30:35;11.00;;;7.43;;
18973;SDS011;9621;48.690;9.466;2022-11-28T06:33:04;9.47;;;7.50;;
18973;SDS011;9621;48.690;9.466;2022-11-28T06:35:31;17.33;;;8.97;;
18973;SDS011;9621;48.690;9.466;2022-11-28T06:37:58;10.50;;;7.73;;
18973;SDS011;9621;48.690;9.466;2022-11-28T06:40:25;13.40;;;8.30;;
18973;SDS011;9621;48.690;9.466;2022-11-28T06:42:51;10.50;;;7.50;;
18973;SDS011;9621;48.690;9.466;2022-11-28T06:45:18;8.87;;;7.53;;
18973;SDS011;9621;48.690;9.466;2022-11-28T06:47:46;10.43;;;7.90;;
18973;SDS011;9621;48.690;9.466;2022-11-28T06:50:15;11.47;;;7.83;;
18973;SDS011;9621;48.690;9.466;2022-11-28T06:52:42;10.67;;;7.77;;
18973;SDS011;9621;48.690;9.466;2022-11-28T06:55:08;14.03;;;7.70;;
18973;SDS011;9621;48.690;9.466;2022-11-28T06:57:35;11.53;;;8.60;;
18973;SDS011;9621;48.690;9.466;2022-11-28T07:00:04;14.37;;;8.70;;
18973;SDS011;9621;48.690;9.466;2022-11-28T07:02:31;13.80;;;8.90;;
18973;SDS011;9621;48.690;9.466;2022-11-28T07:04:58;12.53;;;8.33;;
18973;SDS011;9621;48.690;9.466;2022-11-28T07:07:27;11.70;;;7.43;;
18973;SDS011;9621;48.690;9.466;2022-11-28T07:09:54;11.53;;;8.10;;
18973;SDS011;9621;48.690;9.466;2022-11-28T07:12:21;10.57;;;7.97;;
18973;SDS011;9621;48.690;9.466;2022-11-28T07:14:51;10.57;;;7.83;;
18973;SDS011;9621;48.690;9.466;2022-11-28T07:17:18;13.33;;;8.17;;
18973;SDS011;9621;48.690;9.466;2022-11-28T07:19:45;10.37;;;7.73;;
18973;SDS011;9621;48.690;9.466;2022-11-28T07:22:12;15.73;;;8.20;;
18973;SDS011;9621;48.690;9.466;2022-11-28T07:24:40;11.57;;;8.23;;
18973;SDS011;9621;48.690;9.466;2022-11-28T07:27:07;11.63;;;8.33;;
18973;SDS011;9621;48.690;9.466;2022-11-28T07:29:34;10.63;;;7.73;;
18973;SDS011;9621;48.690;9.466;2022-11-28T07:32:01;17.40;;;8.23;;
18973;SDS011;9621;48.690;9.466;2022-11-28T07:34:29;11.97;;;7.90;;
18973;SDS011;9621;48.690;9.466;2022-11-28T07:36:56;9.90;;;7.53;;
18973;SDS011;9621;48.690;9.466;2022-11-28T07:39:24;12.50;;;7.77;;
18973;SDS011;9621;48.690;9.466;2022-11-28T07:41:52;11.97;;;8.40;;
18973;SDS011;9621;48.690;9.466;2022-11-28T07:44:19;19.63;;;10.47;;
18973;SDS011;9621;48.690;9.466;2022-11-28T07:46:46;14.97;;;11.40;;
18973;SDS011;9621;48.690;9.466;2022-11-28T07:49:13;15.13;;;10.77;;
18973;SDS011;9621;48.690;9.466;2022-11-28T07:51:41;18.30;;;11.10;;
18973;SDS011;9621;48.690;9.466;2022-11-28T07:54:08;20.87;;;13.33;;
18973;SDS011;9621;48.690;9.466;2022-11-28T07:56:36;14.00;;;9.53;;
18973;SDS011;9621;48.690;9.466;2022-11-28T07:59:04;15.67;;;10.60;;
18973;SDS011;9621;48.690;9.466;2022-11-28T08:01:32;26.07;;;14.00;;
18973;SDS011;9621;48.690;9.466;2022-11-28T08:04:02;20.10;;;12.63;;
18973;SDS011;9621;48.690;9.466;2022-11-28T08:06:30;20.70;;;12.37;;
18973;SDS011;9621;48.690;9.466;2022-11-28T08:09:00;16.33;;;10.80;;
18973;SDS011;9621;48.690;9.466;2022-11-28T08:11:27;16.43;;;11.87;;
18973;SDS011;9621;48.690;9.466;2022-11-28T08:13:56;18.70;;;11.80;;
18973;SDS011;9621;48.690;9.466;2022-11-28T08:16:25;19.07;;;12.07;;
18973;SDS011;9621;48.690;9.466;2022-11-28T08:18:54;18.37;;;11.60;;
18973;SDS011;9621;48.690;9.466;2022-11-28T08:21:21;13.40;;;9.57;;
18973;SDS011;9621;48.690;9.466;2022-11-28T08:23:50;14.73;;;9.70;;
18973;SDS011;9621;48.690;9.466;2022-11-28T08:26:19;13.57;;;9.53;;
18973;SDS011;9621;48.690;9.466;2022-11-28T08:28:47;14.73;;;10.07;;
18973;SDS011;9621;48.690;9.466;2022-11-28T08:31:18;23.20;;;15.17;;
18973;SDS011;9621;48.690;9.466;2022-11-28T08:33:48;29.07;;;13.93;;
18973;SDS011;9621;48.690;9.466;2022-11-28T08:36:16;24.27;;;15.50;;
18973;SDS011;9621;48.690;9.466;2022-11-28T08:38:44;25.83;;;14.70;;
18973;SDS011;9621;48.690;9.466;2022-11-28T08:41:13;16.67;;;11.67;;
18973;SDS011;9621;48.690;9.466;2022-11-28T08:43:42;16.77;;;11.77;;
18973;SDS011;9621;48.690;9.466;2022-11-28T08:46:09;19.23;;;11.63;;
18973;SDS011;9621;48.690;9.466;2022-11-28T08:48:38;17.37;;;11.40;;
18973;SDS011;9621;48.690;9.466;2022-11-28T08:51:07;15.70;;;10.53;;
18973;SDS011;9621;48.690;9.466;2022-11-28T08:53:38;25.40;;;11.20;;
18973;SDS011;9621;48.690;9.466;2022-11-28T08:56:05;24.87;;;11.03;;
18973;SDS011;9621;48.690;9.466;2022-11-28T08:58:32;28.13;;;11.67;;
18973;SDS011;9621;48.690;9.466;2022-11-28T09:00:59;20.87;;;10.43;;
18973;SDS011;9621;48.690;9.466;2022-11-28T09:03:26;23.13;;;10.53;;
18973;SDS011;9621;48.690;9.466;2022-11-28T09:05:58;21.27;;;10.13;;
18973;SDS011;9621;48.690;9.466;2022-11-28T09:08:27;15.40;;;9.00;;
18973;SDS011;9621;48.690;9.466;2022-11-28T09:10:54;22.50;;;10.23;;
18973;SDS011;9621;48.690;9.466;2022-11-28T09:13:21;20.03;;;10.00;;
18973;SDS011;9621;48.690;9.466;2022-11-28T09:15:48;26.27;;;10.70;;
18973;SDS011;9621;48.690;9.466;2022-11-28T09:18:15;22.27;;;10.20;;
18973;SDS011;9621;48.690;9.466;2022-11-28T09:20:43;20.73;;;10.60;;
18973;SDS011;9621;48.690;9.466;2022-11-28T09:23:10;20.13;;;9.83;;
18973;SDS011;9621;48.690;9.466;2022-11-28T09:25:38;15.80;;;9.53;;
18973;SDS011;9621;48.690;9.466;2022-11-28T09:28:05;14.07;;;9.40;;
18973;SDS011;9621;48.690;9.466;2022-11-28T09:30:32;13.23;;;9.17;;
18973;SDS011;9621;48.690;9.466;2022-11-28T09:32:59;14.40;;;8.80;;
18973;SDS011;9621;48.690;9.466;2022-11-28T09:35:26;12.93;;;8.70;;
18973;SDS011;9621;48.690;9.466;2022-11-28T09:37:53;15.83;;;9.80;;
18973;SDS011;9621;48.690;9.466;2022-11-28T09:40:22;13.00;;;9.50;;
18973;SDS011;9621;48.690;9.466;2022-11-28T09:42:57;15.67;;;9.97;;
18973;SDS011;9621;48.690;9.466;2022-11-28T09:45:27;15.77;;;9.53;;
18973;SDS011;9621;48.690;9.466;2022-11-28T09:47:56;15.90;;;9.10;;
18973;SDS011;9621;48.690;9.466;2022-11-28T09:50:29;14.37;;;9.83;;
18973;SDS011;9621;48.690;9.466;2022-11-28T09:53:01;14.67;;;10.40;;
18973;SDS011;9621;48.690;9.466;2022-11-28T09:55:39;16.07;;;10.17;;
18973;SDS011;9621;48.690;9.466;2022-11-28T09:58:13;16.37;;;10.20;;
18973;SDS011;9621;48.690;9.466;2022-11-28T10:00:44;13.30;;;9.50;;
18973;SDS011;9621;48.690;9.466;2022-11-28T10:03:33;14.33;;;10.10;;
18973;SDS011;9621;48.690;9.466;2022-11-28T10:06:06;14.10;;;10.07;;
18973;SDS011;9621;48.690;9.466;2022-11-28T10:08:43;12.90;;;9.23;;
18973;SDS011;9621;48.690;9.466;2022-11-28T10:11:23;14.63;;;9.83;;
18973;SDS011;9621;48.690;9.466;2022-11-28T10:14:02;15.73;;;9.73;;
18973;SDS011;9621;48.690;9.466;2022-11-28T10:16:45;16.43;;;10.23;;
18973;SDS011;9621;48.690;9.466;2022-11-28T10:19:22;15.17;;;10.07;;
18973;SDS011;9621;48.690;9.466;2022-11-28T10:21:54;16.10;;;9.70;;
18973;SDS011;9621;48.690;9.466;2022-11-28T10:24:27;15.23;;;10.13;;
18973;SDS011;9621;48.690;9.466;2022-11-28T10:27:04;15.50;;;9.80;;
18973;SDS011;9621;48.690;9.466;2022-11-28T10:29:37;18.00;;;10.60;;
18973;SDS011;9621;48.690;9.466;2022-11-28T10:32:13;16.57;;;10.13;;
18973;SDS011;9621;48.690;9.466;2022-11-28T10:34:43;18.17;;;10.90;;
18973;SDS011;9621;48.690;9.466;2022-11-28T10:37:18;14.00;;;10.17;;
18973;SDS011;9621;48.690;9.466;2022-11-28T10:39:48;13.17;;;9.50;;
18973;SDS011;9621;48.690;9.466;2022-11-28T10:42:17;18.20;;;10.90;;
18973;SDS011;9621;48.690;9.466;2022-11-28T10:44:54;19.00;;;10.27;;
18973;SDS011;9621;48.690;9.466;2022-11-28T10:47:39;14.03;;;9.97;;
18973;SDS011;9621;48.690;9.466;2022-11-28T10:50:23;15.60;;;10.80;;
18973;SDS011;9621;48.690;9.466;2022-11-28T10:52:58;18.23;;;11.10;;
18973;SDS011;9621;48.690;9.466;2022-11-28T10:55:32;16.07;;;10.43;;
18973;SDS011;9621;48.690;9.466;2022-11-28T10:58:09;17.53;;;10.60;;
18973;SDS011;9621;48.690;9.466;2022-11-28T11:00:46;16.70;;;10.23;;
18973;SDS011;9621;48.690;9.466;2022-11-28T11:03:15;16.43;;;11.27;;
18973;SDS011;9621;48.690;9.466;2022-11-28T11:05:43;15.23;;;10.50;;
18973;SDS011;9621;48.690;9.466;2022-11-28T11:08:11;18.00;;;10.70;;
18973;SDS011;9621;48.690;9.466;2022-11-28T11:10:45;20.07;;;10.93;;
18973;SDS011;9621;48.690;9.466;2022-11-28T11:13:16;15.73;;;11.00;;
18973;SDS011;9621;48.690;9.466;2022-11-28T11:15:46;25.37;;;12.70;;
18973;SDS011;9621;48.690;9.466;2022-11-28T11:18:20;22.87;;;12.30;;
18973;SDS011;9621;48.690;9.466;2022-11-28T11:20:50;21.53;;;12.73;;
18973;SDS011;9621;48.690;9.466;2022-11-28T11:23:29;23.40;;;13.50;;
18973;SDS011;9621;48.690;9.466;2022-11-28T11:25:57;20.00;;;13.90;;
18973;SDS011;9621;48.690;9.466;2022-11-28T11:28:25;23.27;;;13.27;;
18973;SDS011;9621;48.690;9.466;2022-11-28T11:31:15;22.60;;;12.67;;
18973;SDS011;9621;48.690;9.466;2022-11-28T11:33:44;24.03;;;12.67;;
18973;SDS011;9621;48.690;9.466;2022-11-28T11:39:14;25.27;;;12.97;;
18973;SDS011;9621;48.690;9.466;2022-11-28T11:41:46;23.63;;;12.90;;
18973;SDS011;9621;48.690;9.466;2022-11-28T11:44:25;23.53;;;14.93;;
18973;SDS011;9621;48.690;9.466;2022-11-28T11:46:59;23.60;;;13.07;;
18973;SDS011;9621;48.690;9.466;2022-11-28T11:49:31;26.20;;;12.80;;
18973;SDS011;9621;48.690;9.466;2022-11-28T11:52:00;21.33;;;12.87;;
18973;SDS011;9621;48.690;9.466;2022-11-28T11:54:28;24.83;;;14.10;;
18973;SDS011;9621;48.690;9.466;2022-11-28T11:56:56;18.80;;;12.53;;
18973;SDS011;9621;48.690;9.466;2022-11-28T11:59:25;20.63;;;13.27;;
18973;SDS011;9621;48.690;9.466;2022-11-28T12:01:59;22.90;;;12.50;;
18973;SDS011;9621;48.690;9.466;2022-11-28T12:04:29;21.47;;;12.77;;
18973;SDS011;9621;48.690;9.466;2022-11-28T12:06:59;24.47;;;12.27;;
18973;SDS011;9621;48.690;9.466;2022-11-28T12:09:30;19.50;;;12.23;;
18973;SDS011;9621;48.690;9.466;2022-11-28T12:12:05;22.07;;;12.73;;
18973;SDS011;9621;48.690;9.466;2022-11-28T12:14:37;19.37;;;12.20;;
18973;SDS011;9621;48.690;9.466;2022-11-28T12:17:11;19.33;;;12.40;;
18973;SDS011;9621;48.690;9.466;2022-11-28T12:19:49;20.50;;;13.00;;
18973;SDS011;9621;48.690;9.466;2022-11-28T12:22:27;16.30;;;11.43;;
18973;SDS011;9621;48.690;9.466;2022-11-28T12:25:07;18.33;;;12.17;;
18973;SDS011;9621;48.690;9.466;2022-11-28T12:27:43;18.53;;;12.73;;
18973;SDS011;9621;48.690;9.466;2022-11-28T12:30:22;15.93;;;11.17;;
18973;SDS011;9621;48.690;9.466;2022-11-28T12:32:59;25.40;;;13.07;;
18973;SDS011;9621;48.690;9.466;2022-11-28T12:35:41;17.03;;;12.40;;
18973;SDS011;9621;48.690;9.466;2022-11-28T12:38:14;15.60;;;11.53;;
18973;SDS011;9621;48.690;9.466;2022-11-28T12:40:52;18.37;;;11.90;;
18973;SDS011;9621;48.690;9.466;2022-11-28T12:43:49;22.00;;;12.63;;
18973;SDS011;9621;48.690;9.466;2022-11-28T12:46:22;21.90;;;13.73;;
18973;SDS011;9621;48.690;9.466;2022-11-28T12:51:52;18.00;;;13.03;;
18973;SDS011;9621;48.690;9.466;2022-11-28T12:54:31;21.17;;;13.40;;
18973;SDS011;9621;48.690;9.466;2022-11-28T12:57:07;16.10;;;12.03;;
18973;SDS011;9621;48.690;9.466;2022-11-28T12:59:42;20.10;;;12.20;;
18973;SDS011;9621;48.690;9.466;2022-11-28T13:02:17;16.57;;;11.80;;
18973;SDS011;9621;48.690;9.466;2022-11-28T13:04:56;18.90;;;11.57;;
18973;SDS011;9621;48.690;9.466;2022-11-28T13:10:16;19.30;;;12.67;;
18973;SDS011;9621;48.690;9.466;2022-11-28T13:12:51;16.67;;;12.20;;
18973;SDS011;9621;48.690;9.466;2022-11-28T13:15:27;18.87;;;11.67;;
18973;SDS011;9621;48.690;9.466;2022-11-28T13:18:10;20.43;;;12.53;;
18973;SDS011;9621;48.690;9.466;2022-11-28T13:20:47;20.03;;;12.63;;
18973;SDS011;9621;48.690;9.466;2022-11-28T13:23:19;22.57;;;13.33;;
18973;SDS011;9621;48.690;9.466;2022-11-28T13:25:51;18.17;;;12.43;;
18973;SDS011;9621;48.690;9.466;2022-11-28T13:28:25;15.87;;;11.93;;
18973;SDS011;9621;48.690;9.466;2022-11-28T13:30:57;18.47;;;12.87;;
18973;SDS011;9621;48.690;9.466;2022-11-28T13:33:36;20.47;;;13.00;;
18973;SDS011;9621;48.690;9.466;2022-11-28T13:36:16;18.50;;;12.23;;
18973;SDS011;9621;48.690;9.466;2022-11-28T13:38:52;18.90;;;12.70;;
18973;SDS011;9621;48.690;9.466;2022-11-28T13:41:23;17.43;;;12.23;;
18973;SDS011;9621;48.690;9.466;2022-11-28T13:43:57;23.80;;;13.90;;
18973;SDS011;9621;48.690;9.466;2022-11-28T13:46:29;20.40;;;13.70;;
18973;SDS011;9621;48.690;9.466;2022-11-28T13:48:59;21.00;;;13.73;;
18973;SDS011;9621;48.690;9.466;2022-11-28T13:51:29;21.67;;;12.80;;
18973;SDS011;9621;48.690;9.466;2022-11-28T13:57:20;18.20;;;12.07;;
18973;SDS011;9621;48.690;9.466;2022-11-28T13:59:50;32.50;;;17.83;;
18973;SDS011;9621;48.690;9.466;2022-11-28T14:02:21;36.97;;;21.23;;
18973;SDS011;9621;48.690;9.466;2022-11-28T14:04:52;39.33;;;19.70;;
18973;SDS011;9621;48.690;9.466;2022-11-28T14:07:23;29.17;;;17.97;;
18973;SDS011;9621;48.690;9.466;2022-11-28T14:09:56;23.37;;;15.10;;
18973;SDS011;9621;48.690;9.466;2022-11-28T14:12:35;27.57;;;15.03;;
18973;SDS011;9621;48.690;9.466;2022-11-28T14:15:17;23.47;;;15.03;;
18973;SDS011;9621;48.690;9.466;2022-11-28T14:20:47;24.73;;;13.57;;
18973;SDS011;9621;48.690;9.466;2022-11-28T14:23:26;23.30;;;14.47;;
18973;SDS011;9621;48.690;9.466;2022-11-28T14:25:59;19.43;;;13.60;;
18973;SDS011;9621;48.690;9.466;2022-11-28T14:28:27;25.33;;;14.03;;
18973;SDS011;9621;48.690;9.466;2022-11-28T14:31:01;21.70;;;13.77;;
18973;SDS011;9621;48.690;9.466;2022-11-28T14:33:31;20.73;;;13.23;;
18973;SDS011;9621;48.690;9.466;2022-11-28T14:36:06;22.90;;;13.87;;
18973;SDS011;9621;48.690;9.466;2022-11-28T14:45:02;22.07;;;14.30;;
18973;SDS011;9621;48.690;9.466;2022-11-28T14:48:16;24.60;;;13.60;;
18973;SDS011;9621;48.690;9.466;2022-11-28T14:50:52;21.73;;;14.17;;
18973;SDS011;9621;48.690;9.466;2022-11-28T14:53:35;23.40;;;13.07;;
18973;SDS011;9621;48.690;9.466;2022-11-28T14:56:20;22.30;;;13.40;;
18973;SDS011;9621;48.690;9.466;2022-11-28T14:58:53;21.37;;;13.00;;
18973;SDS011;9621;48.690;9.466;2022-11-28T15:01:29;22.97;;;13.93;;
18973;SDS011;9621;48.690;9.466;2022-11-28T15:04:06;23.33;;;13.77;;
18973;SDS011;9621;48.690;9.466;2022-11-28T15:06:45;25.80;;;13.73;;
18973;SDS011;9621;48.690;9.466;2022-11-28T15:09:15;22.77;;;12.90;;
18973;SDS011;9621;48.690;9.466;2022-11-28T15:11:53;25.20;;;14.17;;
18973;SDS011;9621;48.690;9.466;2022-11-28T15:14:32;23.67;;;13.00;;
18973;SDS011;9621;48.690;9.466;2022-11-28T15:17:01;21.40;;;12.93;;
18973;SDS011;9621;48.690;9.466;2022-11-28T15:19:30;24.90;;;13.67;;
18973;SDS011;9621;48.690;9.466;2022-11-28T15:22:02;23.10;;;14.67;;
18973;SDS011;9621;48.690;9.466;2022-11-28T15:24:30;22.13;;;13.73;;
18973;SDS011;9621;48.690;9.466;2022-11-28T15:29:52;21.17;;;12.77;;
18973;SDS011;9621;48.690;9.466;2022-11-28T15:32:20;24.70;;;12.50;;
18973;SDS011;9621;48.690;9.466;2022-11-28T15:34:52;23.30;;;12.47;;